X  Cerrar Datos meteorológicos de aviación METAR     LIPX Verona-Villafranca Valerio Catullo Airport
Temperatura
81°F Temperatura
59°F Punto de rocío
48% Humedad



Viento
6 MPH
10 KM/H
3 M/S
5 NUDO



280°
O
Condiciones actuales

Parcialmente nublado Parcialmente nublado
Presión 1009.82 (hPa) - 29.82 (inHg)
Visibilidad 6 (milla) - 9.7 (km)
Aeropuerto
Código de aeropuerto LIPX

localidad: Verona-Villafranca Valerio Catullo Airport
Distancia: 0 (mi)

Metar:
LIPX 161520Z 28005KT 250V330 9999 FEW040 27/15 Q1010

Hora: 16-06-2024 15:20 CEST